Cego, Texas
Current Conditions -  °F | °C
As of 6:15 AM on Friday 19 Dec 2014 (Local Time) from KTPL Reporting Station
Overcast Overcast  
Wind Chill: 40°   Ceiling: 600
Heat Index: 46°   Visibility: 5mi
Dew Point: 43°   Wind: 16mph
Humidity: 87%   Direction: 330°NNW
Pressure: 30.13"   Gusts: 24mph
Location:  31.265°N, 97.2164°W
Report Text: KTPL 191215Z AUTO 33014G21KT 5SM OVC006 08/06 A3013 RMK AO1 LTG DSNT NW P0001
Loading
Personal Weather Stations






























Interactive Weather Map New forecast layout! Learn more

10-Day Weather Forecast

Advertisements
Track Severe Weather on mobile